sensor_id;sensor_type;location;lat;lon;timestamp;P1;durP1;ratioP1;P2;durP2;ratioP2
19251;SDS011;9760;50.944;5.304;2023-05-14T00:01:36;12.63;;;6.17;;
19251;SDS011;9760;50.944;5.304;2023-05-14T00:04:02;9.00;;;5.60;;
19251;SDS011;9760;50.944;5.304;2023-05-14T00:06:28;9.27;;;6.90;;
19251;SDS011;9760;50.944;5.304;2023-05-14T00:08:53;19.27;;;7.10;;
19251;SDS011;9760;50.944;5.304;2023-05-14T00:11:19;12.87;;;7.00;;
19251;SDS011;9760;50.944;5.304;2023-05-14T00:13:45;11.07;;;7.10;;
19251;SDS011;9760;50.944;5.304;2023-05-14T00:16:11;12.77;;;7.93;;
19251;SDS011;9760;50.944;5.304;2023-05-14T00:18:36;13.47;;;8.57;;
19251;SDS011;9760;50.944;5.304;2023-05-14T00:21:02;11.80;;;8.00;;
19251;SDS011;9760;50.944;5.304;2023-05-14T00:23:28;11.53;;;7.87;;
19251;SDS011;9760;50.944;5.304;2023-05-14T00:25:54;12.07;;;7.97;;
19251;SDS011;9760;50.944;5.304;2023-05-14T00:28:20;12.90;;;7.70;;
19251;SDS011;9760;50.944;5.304;2023-05-14T00:30:45;16.93;;;8.73;;
19251;SDS011;9760;50.944;5.304;2023-05-14T00:33:11;14.97;;;8.10;;
19251;SDS011;9760;50.944;5.304;2023-05-14T00:35:37;14.30;;;7.83;;
19251;SDS011;9760;50.944;5.304;2023-05-14T00:38:02;16.33;;;9.10;;
19251;SDS011;9760;50.944;5.304;2023-05-14T00:40:28;10.83;;;8.13;;
19251;SDS011;9760;50.944;5.304;2023-05-14T00:42:54;14.07;;;9.10;;
19251;SDS011;9760;50.944;5.304;2023-05-14T00:45:21;12.00;;;8.67;;
19251;SDS011;9760;50.944;5.304;2023-05-14T00:47:46;14.40;;;8.90;;
19251;SDS011;9760;50.944;5.304;2023-05-14T00:50:13;16.97;;;8.77;;
19251;SDS011;9760;50.944;5.304;2023-05-14T00:52:40;14.57;;;9.30;;
19251;SDS011;9760;50.944;5.304;2023-05-14T00:55:06;13.73;;;9.67;;
19251;SDS011;9760;50.944;5.304;2023-05-14T00:57:33;16.87;;;9.67;;
19251;SDS011;9760;50.944;5.304;2023-05-14T01:00:00;17.00;;;10.13;;
19251;SDS011;9760;50.944;5.304;2023-05-14T01:02:26;14.77;;;10.00;;
19251;SDS011;9760;50.944;5.304;2023-05-14T01:04:52;18.27;;;10.60;;
19251;SDS011;9760;50.944;5.304;2023-05-14T01:07:25;15.77;;;10.77;;
19251;SDS011;9760;50.944;5.304;2023-05-14T01:10:12;17.97;;;10.20;;
19251;SDS011;9760;50.944;5.304;2023-05-14T01:12:45;19.60;;;11.77;;
19251;SDS011;9760;50.944;5.304;2023-05-14T01:17:51;14.53;;;9.80;;
19251;SDS011;9760;50.944;5.304;2023-05-14T01:20:20;14.37;;;10.03;;
19251;SDS011;9760;50.944;5.304;2023-05-14T01:22:47;19.50;;;11.90;;
19251;SDS011;9760;50.944;5.304;2023-05-14T01:25:12;17.83;;;10.90;;
19251;SDS011;9760;50.944;5.304;2023-05-14T01:28:23;20.10;;;10.83;;
19251;SDS011;9760;50.944;5.304;2023-05-14T01:30:30;20.47;;;11.50;;
19251;SDS011;9760;50.944;5.304;2023-05-14T01:33:10;17.30;;;12.17;;
19251;SDS011;9760;50.944;5.304;2023-05-14T01:35:38;20.17;;;10.53;;
19251;SDS011;9760;50.944;5.304;2023-05-14T01:38:05;18.00;;;10.60;;
19251;SDS011;9760;50.944;5.304;2023-05-14T01:40:33;20.37;;;11.43;;
19251;SDS011;9760;50.944;5.304;2023-05-14T01:43:00;17.60;;;11.30;;
19251;SDS011;9760;50.944;5.304;2023-05-14T01:45:27;16.47;;;11.73;;
19251;SDS011;9760;50.944;5.304;2023-05-14T01:47:54;16.07;;;11.60;;
19251;SDS011;9760;50.944;5.304;2023-05-14T01:50:20;21.33;;;11.60;;
19251;SDS011;9760;50.944;5.304;2023-05-14T01:52:45;21.97;;;12.87;;
19251;SDS011;9760;50.944;5.304;2023-05-14T01:55:12;21.70;;;12.73;;
19251;SDS011;9760;50.944;5.304;2023-05-14T01:57:38;18.87;;;12.03;;
19251;SDS011;9760;50.944;5.304;2023-05-14T02:00:04;22.67;;;12.13;;
19251;SDS011;9760;50.944;5.304;2023-05-14T02:02:30;18.77;;;11.80;;
19251;SDS011;9760;50.944;5.304;2023-05-14T02:04:56;17.90;;;12.17;;
19251;SDS011;9760;50.944;5.304;2023-05-14T02:07:22;18.43;;;11.53;;
19251;SDS011;9760;50.944;5.304;2023-05-14T02:09:47;22.57;;;13.00;;
19251;SDS011;9760;50.944;5.304;2023-05-14T02:12:13;19.60;;;12.10;;
19251;SDS011;9760;50.944;5.304;2023-05-14T02:14:38;21.80;;;13.73;;
19251;SDS011;9760;50.944;5.304;2023-05-14T02:17:04;21.43;;;13.97;;
19251;SDS011;9760;50.944;5.304;2023-05-14T02:19:30;19.37;;;12.67;;
19251;SDS011;9760;50.944;5.304;2023-05-14T02:21:55;21.63;;;14.07;;
19251;SDS011;9760;50.944;5.304;2023-05-14T02:24:22;20.63;;;12.83;;
19251;SDS011;9760;50.944;5.304;2023-05-14T02:26:48;19.33;;;12.23;;
19251;SDS011;9760;50.944;5.304;2023-05-14T02:29:13;17.63;;;12.60;;
19251;SDS011;9760;50.944;5.304;2023-05-14T02:31:39;25.13;;;12.73;;
19251;SDS011;9760;50.944;5.304;2023-05-14T02:34:05;17.63;;;12.87;;
19251;SDS011;9760;50.944;5.304;2023-05-14T02:36:31;29.03;;;13.00;;
19251;SDS011;9760;50.944;5.304;2023-05-14T02:38:57;17.70;;;12.80;;
19251;SDS011;9760;50.944;5.304;2023-05-14T02:41:23;17.80;;;12.20;;
19251;SDS011;9760;50.944;5.304;2023-05-14T02:43:49;20.53;;;13.10;;
19251;SDS011;9760;50.944;5.304;2023-05-14T02:46:15;18.97;;;13.37;;
19251;SDS011;9760;50.944;5.304;2023-05-14T02:48:41;23.37;;;13.77;;
19251;SDS011;9760;50.944;5.304;2023-05-14T02:51:07;20.43;;;13.37;;
19251;SDS011;9760;50.944;5.304;2023-05-14T02:53:33;22.90;;;13.63;;
19251;SDS011;9760;50.944;5.304;2023-05-14T02:55:59;19.37;;;13.73;;
19251;SDS011;9760;50.944;5.304;2023-05-14T02:58:24;25.27;;;15.13;;
19251;SDS011;9760;50.944;5.304;2023-05-14T03:00:50;22.20;;;14.07;;
19251;SDS011;9760;50.944;5.304;2023-05-14T03:03:17;24.00;;;15.33;;
19251;SDS011;9760;50.944;5.304;2023-05-14T03:05:43;28.10;;;15.43;;
19251;SDS011;9760;50.944;5.304;2023-05-14T03:08:09;25.30;;;15.07;;
19251;SDS011;9760;50.944;5.304;2023-05-14T03:10:35;21.87;;;14.83;;
19251;SDS011;9760;50.944;5.304;2023-05-14T03:13:01;21.73;;;14.23;;
19251;SDS011;9760;50.944;5.304;2023-05-14T03:15:27;21.63;;;14.67;;
19251;SDS011;9760;50.944;5.304;2023-05-14T03:17:52;23.20;;;15.10;;
19251;SDS011;9760;50.944;5.304;2023-05-14T03:20:18;25.00;;;16.10;;
19251;SDS011;9760;50.944;5.304;2023-05-14T03:22:44;24.03;;;15.47;;
19251;SDS011;9760;50.944;5.304;2023-05-14T03:25:10;22.93;;;15.50;;
19251;SDS011;9760;50.944;5.304;2023-05-14T03:27:35;29.63;;;16.37;;
19251;SDS011;9760;50.944;5.304;2023-05-14T03:30:01;24.67;;;15.80;;
19251;SDS011;9760;50.944;5.304;2023-05-14T03:32:27;27.80;;;15.33;;
19251;SDS011;9760;50.944;5.304;2023-05-14T03:34:54;22.13;;;16.17;;
19251;SDS011;9760;50.944;5.304;2023-05-14T03:37:19;22.93;;;15.23;;
19251;SDS011;9760;50.944;5.304;2023-05-14T03:39:45;24.77;;;16.53;;
19251;SDS011;9760;50.944;5.304;2023-05-14T03:42:11;25.80;;;16.03;;
19251;SDS011;9760;50.944;5.304;2023-05-14T03:44:36;31.80;;;18.43;;
19251;SDS011;9760;50.944;5.304;2023-05-14T03:47:02;28.60;;;16.63;;
19251;SDS011;9760;50.944;5.304;2023-05-14T03:49:28;26.53;;;17.10;;
19251;SDS011;9760;50.944;5.304;2023-05-14T03:51:53;26.90;;;16.50;;
19251;SDS011;9760;50.944;5.304;2023-05-14T03:54:19;34.47;;;18.77;;
19251;SDS011;9760;50.944;5.304;2023-05-14T03:56:45;35.63;;;18.60;;
19251;SDS011;9760;50.944;5.304;2023-05-14T03:59:10;27.73;;;18.13;;
19251;SDS011;9760;50.944;5.304;2023-05-14T04:01:36;32.33;;;21.00;;
19251;SDS011;9760;50.944;5.304;2023-05-14T04:04:02;35.70;;;20.83;;
19251;SDS011;9760;50.944;5.304;2023-05-14T04:06:27;40.87;;;23.33;;
19251;SDS011;9760;50.944;5.304;2023-05-14T04:08:53;38.83;;;23.20;;
19251;SDS011;9760;50.944;5.304;2023-05-14T04:11:19;44.33;;;26.00;;
19251;SDS011;9760;50.944;5.304;2023-05-14T04:13:45;42.90;;;26.03;;
19251;SDS011;9760;50.944;5.304;2023-05-14T04:16:11;48.40;;;26.60;;
19251;SDS011;9760;50.944;5.304;2023-05-14T04:18:36;42.97;;;26.20;;
19251;SDS011;9760;50.944;5.304;2023-05-14T04:21:02;46.40;;;28.87;;
19251;SDS011;9760;50.944;5.304;2023-05-14T04:23:28;52.40;;;29.10;;
19251;SDS011;9760;50.944;5.304;2023-05-14T04:25:55;54.50;;;30.37;;
19251;SDS011;9760;50.944;5.304;2023-05-14T04:28:21;56.30;;;31.63;;
19251;SDS011;9760;50.944;5.304;2023-05-14T04:30:47;46.20;;;28.17;;
19251;SDS011;9760;50.944;5.304;2023-05-14T04:33:13;50.90;;;30.40;;
19251;SDS011;9760;50.944;5.304;2023-05-14T04:35:38;54.43;;;30.80;;
19251;SDS011;9760;50.944;5.304;2023-05-14T04:38:04;56.40;;;31.23;;
19251;SDS011;9760;50.944;5.304;2023-05-14T04:40:30;51.23;;;30.33;;
19251;SDS011;9760;50.944;5.304;2023-05-14T04:42:56;57.17;;;32.43;;
19251;SDS011;9760;50.944;5.304;2023-05-14T04:45:21;51.57;;;31.00;;
19251;SDS011;9760;50.944;5.304;2023-05-14T04:47:47;54.23;;;32.40;;
19251;SDS011;9760;50.944;5.304;2023-05-14T04:50:13;56.90;;;32.00;;
19251;SDS011;9760;50.944;5.304;2023-05-14T04:52:39;55.97;;;32.40;;
19251;SDS011;9760;50.944;5.304;2023-05-14T04:55:05;55.53;;;32.90;;
19251;SDS011;9760;50.944;5.304;2023-05-14T04:57:32;60.33;;;34.53;;
19251;SDS011;9760;50.944;5.304;2023-05-14T04:59:58;55.07;;;33.30;;
19251;SDS011;9760;50.944;5.304;2023-05-14T05:02:23;64.10;;;35.10;;
19251;SDS011;9760;50.944;5.304;2023-05-14T05:04:49;60.87;;;35.10;;
19251;SDS011;9760;50.944;5.304;2023-05-14T05:07:15;55.73;;;35.73;;
19251;SDS011;9760;50.944;5.304;2023-05-14T05:09:41;66.90;;;35.43;;
19251;SDS011;9760;50.944;5.304;2023-05-14T05:12:07;56.53;;;33.57;;
19251;SDS011;9760;50.944;5.304;2023-05-14T05:14:33;66.07;;;36.63;;
19251;SDS011;9760;50.944;5.304;2023-05-14T05:16:58;64.83;;;36.27;;
19251;SDS011;9760;50.944;5.304;2023-05-14T05:19:24;62.47;;;36.73;;
19251;SDS011;9760;50.944;5.304;2023-05-14T05:21:50;62.50;;;37.40;;
19251;SDS011;9760;50.944;5.304;2023-05-14T05:24:16;58.03;;;35.60;;
19251;SDS011;9760;50.944;5.304;2023-05-14T05:26:41;63.73;;;38.13;;
19251;SDS011;9760;50.944;5.304;2023-05-14T05:29:07;69.90;;;37.93;;
19251;SDS011;9760;50.944;5.304;2023-05-14T05:31:33;62.57;;;36.27;;
19251;SDS011;9760;50.944;5.304;2023-05-14T05:33:58;62.30;;;36.27;;
19251;SDS011;9760;50.944;5.304;2023-05-14T05:36:24;62.50;;;36.30;;
19251;SDS011;9760;50.944;5.304;2023-05-14T05:38:50;64.73;;;35.93;;
19251;SDS011;9760;50.944;5.304;2023-05-14T05:41:16;66.93;;;36.60;;
19251;SDS011;9760;50.944;5.304;2023-05-14T05:43:42;62.03;;;35.93;;
19251;SDS011;9760;50.944;5.304;2023-05-14T05:46:07;61.13;;;36.40;;
19251;SDS011;9760;50.944;5.304;2023-05-14T05:48:33;61.03;;;35.70;;
19251;SDS011;9760;50.944;5.304;2023-05-14T05:50:59;60.03;;;34.87;;
19251;SDS011;9760;50.944;5.304;2023-05-14T05:53:24;62.83;;;35.57;;
19251;SDS011;9760;50.944;5.304;2023-05-14T05:55:50;57.87;;;34.97;;
19251;SDS011;9760;50.944;5.304;2023-05-14T05:58:17;59.43;;;34.37;;
19251;SDS011;9760;50.944;5.304;2023-05-14T06:00:43;57.23;;;35.63;;
19251;SDS011;9760;50.944;5.304;2023-05-14T06:03:10;63.40;;;35.53;;
19251;SDS011;9760;50.944;5.304;2023-05-14T06:05:35;62.03;;;35.47;;
19251;SDS011;9760;50.944;5.304;2023-05-14T06:08:01;65.60;;;35.83;;
19251;SDS011;9760;50.944;5.304;2023-05-14T06:10:27;54.40;;;35.50;;
19251;SDS011;9760;50.944;5.304;2023-05-14T06:12:52;60.63;;;35.83;;
19251;SDS011;9760;50.944;5.304;2023-05-14T06:15:18;61.67;;;36.13;;
19251;SDS011;9760;50.944;5.304;2023-05-14T06:17:44;64.70;;;34.63;;
19251;SDS011;9760;50.944;5.304;2023-05-14T06:20:10;60.73;;;36.43;;
19251;SDS011;9760;50.944;5.304;2023-05-14T06:22:36;61.03;;;35.10;;
19251;SDS011;9760;50.944;5.304;2023-05-14T06:25:02;57.97;;;34.37;;
19251;SDS011;9760;50.944;5.304;2023-05-14T06:27:28;63.17;;;33.90;;
19251;SDS011;9760;50.944;5.304;2023-05-14T06:29:54;57.93;;;34.17;;
19251;SDS011;9760;50.944;5.304;2023-05-14T06:32:20;59.67;;;33.77;;
19251;SDS011;9760;50.944;5.304;2023-05-14T06:34:45;51.70;;;33.03;;
19251;SDS011;9760;50.944;5.304;2023-05-14T06:37:11;52.70;;;32.40;;
19251;SDS011;9760;50.944;5.304;2023-05-14T06:39:37;55.17;;;32.53;;
19251;SDS011;9760;50.944;5.304;2023-05-14T06:42:03;53.53;;;30.97;;
19251;SDS011;9760;50.944;5.304;2023-05-14T06:44:29;48.73;;;31.57;;
19251;SDS011;9760;50.944;5.304;2023-05-14T06:46:55;57.20;;;31.63;;
19251;SDS011;9760;50.944;5.304;2023-05-14T06:49:21;56.30;;;31.27;;
19251;SDS011;9760;50.944;5.304;2023-05-14T06:51:47;50.17;;;30.07;;
19251;SDS011;9760;50.944;5.304;2023-05-14T06:54:12;51.37;;;29.73;;
19251;SDS011;9760;50.944;5.304;2023-05-14T06:56:38;46.77;;;28.17;;
19251;SDS011;9760;50.944;5.304;2023-05-14T06:59:04;47.00;;;29.30;;
19251;SDS011;9760;50.944;5.304;2023-05-14T07:01:29;47.37;;;28.47;;
19251;SDS011;9760;50.944;5.304;2023-05-14T07:03:55;44.57;;;28.10;;
19251;SDS011;9760;50.944;5.304;2023-05-14T07:06:21;44.53;;;27.77;;
19251;SDS011;9760;50.944;5.304;2023-05-14T07:08:47;42.10;;;26.17;;
19251;SDS011;9760;50.944;5.304;2023-05-14T07:11:13;49.40;;;28.10;;
19251;SDS011;9760;50.944;5.304;2023-05-14T07:13:39;45.83;;;27.23;;
19251;SDS011;9760;50.944;5.304;2023-05-14T07:16:06;48.17;;;27.03;;
19251;SDS011;9760;50.944;5.304;2023-05-14T07:18:35;47.60;;;27.80;;
19251;SDS011;9760;50.944;5.304;2023-05-14T07:21:01;46.47;;;28.90;;
19251;SDS011;9760;50.944;5.304;2023-05-14T07:23:28;42.70;;;26.97;;
19251;SDS011;9760;50.944;5.304;2023-05-14T07:25:54;47.93;;;28.17;;
19251;SDS011;9760;50.944;5.304;2023-05-14T07:28:20;46.53;;;26.57;;
19251;SDS011;9760;50.944;5.304;2023-05-14T07:30:45;52.70;;;27.93;;
19251;SDS011;9760;50.944;5.304;2023-05-14T07:33:11;43.60;;;26.60;;
19251;SDS011;9760;50.944;5.304;2023-05-14T07:35:37;44.07;;;27.10;;
19251;SDS011;9760;50.944;5.304;2023-05-14T07:38:02;45.73;;;26.67;;
19251;SDS011;9760;50.944;5.304;2023-05-14T07:40:29;49.70;;;26.20;;
19251;SDS011;9760;50.944;5.304;2023-05-14T07:42:55;45.87;;;25.97;;
19251;SDS011;9760;50.944;5.304;2023-05-14T07:45:21;46.40;;;25.93;;
19251;SDS011;9760;50.944;5.304;2023-05-14T07:47:46;42.20;;;25.97;;
19251;SDS011;9760;50.944;5.304;2023-05-14T07:50:16;57.03;;;26.63;;
19251;SDS011;9760;50.944;5.304;2023-05-14T07:52:42;44.27;;;25.03;;
19251;SDS011;9760;50.944;5.304;2023-05-14T07:55:09;44.43;;;25.43;;
19251;SDS011;9760;50.944;5.304;2023-05-14T07:57:34;39.63;;;24.03;;
19251;SDS011;9760;50.944;5.304;2023-05-14T08:00:01;37.90;;;24.50;;
19251;SDS011;9760;50.944;5.304;2023-05-14T08:02:28;39.63;;;25.53;;
19251;SDS011;9760;50.944;5.304;2023-05-14T08:04:53;41.33;;;24.80;;
19251;SDS011;9760;50.944;5.304;2023-05-14T08:07:19;38.53;;;24.53;;
19251;SDS011;9760;50.944;5.304;2023-05-14T08:09:45;36.93;;;23.73;;
19251;SDS011;9760;50.944;5.304;2023-05-14T08:12:11;40.90;;;23.63;;
19251;SDS011;9760;50.944;5.304;2023-05-14T08:14:37;38.67;;;24.43;;
19251;SDS011;9760;50.944;5.304;2023-05-14T08:17:03;37.73;;;23.17;;
19251;SDS011;9760;50.944;5.304;2023-05-14T08:19:28;37.47;;;23.77;;
19251;SDS011;9760;50.944;5.304;2023-05-14T08:21:54;41.90;;;23.53;;
19251;SDS011;9760;50.944;5.304;2023-05-14T08:24:19;39.87;;;24.53;;
19251;SDS011;9760;50.944;5.304;2023-05-14T08:26:45;41.80;;;25.70;;
19251;SDS011;9760;50.944;5.304;2023-05-14T08:29:11;47.17;;;26.23;;
19251;SDS011;9760;50.944;5.304;2023-05-14T08:31:37;40.07;;;23.50;;
19251;SDS011;9760;50.944;5.304;2023-05-14T08:34:02;41.57;;;22.87;;
19251;SDS011;9760;50.944;5.304;2023-05-14T08:36:28;38.93;;;21.83;;
19251;SDS011;9760;50.944;5.304;2023-05-14T08:38:53;41.63;;;22.90;;
19251;SDS011;9760;50.944;5.304;2023-05-14T08:41:19;36.30;;;22.50;;
19251;SDS011;9760;50.944;5.304;2023-05-14T08:46:20;34.87;;;21.03;;
19251;SDS011;9760;50.944;5.304;2023-05-14T08:48:50;34.07;;;22.37;;
19251;SDS011;9760;50.944;5.304;2023-05-14T08:51:28;36.40;;;20.47;;
19251;SDS011;9760;50.944;5.304;2023-05-14T08:53:54;35.13;;;20.90;;
19251;SDS011;9760;50.944;5.304;2023-05-14T08:56:23;34.40;;;19.87;;
19251;SDS011;9760;50.944;5.304;2023-05-14T08:58:50;35.10;;;19.97;;
19251;SDS011;9760;50.944;5.304;2023-05-14T09:01:17;41.07;;;21.47;;
19251;SDS011;9760;50.944;5.304;2023-05-14T09:03:43;32.27;;;19.67;;
19251;SDS011;9760;50.944;5.304;2023-05-14T09:06:10;31.97;;;20.60;;
19251;SDS011;9760;50.944;5.304;2023-05-14T09:08:37;33.43;;;19.77;;
19251;SDS011;9760;50.944;5.304;2023-05-14T09:11:02;36.77;;;19.37;;
19251;SDS011;9760;50.944;5.304;2023-05-14T09:13:28;28.07;;;18.03;;
19251;SDS011;9760;50.944;5.304;2023-05-14T09:15:55;34.03;;;19.90;;
19251;SDS011;9760;50.944;5.304;2023-05-14T09:18:22;29.47;;;18.90;;
19251;SDS011;9760;50.944;5.304;2023-05-14T09:20:49;37.37;;;20.20;;
19251;SDS011;9760;50.944;5.304;2023-05-14T09:23:16;28.67;;;18.87;;
19251;SDS011;9760;50.944;5.304;2023-05-14T09:25:41;31.80;;;19.57;;
19251;SDS011;9760;50.944;5.304;2023-05-14T09:28:07;34.27;;;20.97;;
19251;SDS011;9760;50.944;5.304;2023-05-14T09:30:33;35.47;;;18.60;;
19251;SDS011;9760;50.944;5.304;2023-05-14T09:33:01;30.27;;;19.00;;
19251;SDS011;9760;50.944;5.304;2023-05-14T09:35:27;29.97;;;18.50;;
19251;SDS011;9760;50.944;5.304;2023-05-14T09:37:54;32.20;;;18.57;;
19251;SDS011;9760;50.944;5.304;2023-05-14T09:40:21;31.90;;;17.83;;
19251;SDS011;9760;50.944;5.304;2023-05-14T09:42:47;29.03;;;17.67;;
19251;SDS011;9760;50.944;5.304;2023-05-14T09:45:13;33.33;;;18.73;;
19251;SDS011;9760;50.944;5.304;2023-05-14T09:47:40;32.13;;;17.70;;
19251;SDS011;9760;50.944;5.304;2023-05-14T09:50:06;33.10;;;17.67;;
19251;SDS011;9760;50.944;5.304;2023-05-14T09:52:33;30.70;;;18.27;;
19251;SDS011;9760;50.944;5.304;2023-05-14T09:54:59;33.37;;;17.90;;
19251;SDS011;9760;50.944;5.304;2023-05-14T09:57:25;31.80;;;18.17;;
19251;SDS011;9760;50.944;5.304;2023-05-14T09:59:51;36.40;;;18.37;;
19251;SDS011;9760;50.944;5.304;2023-05-14T10:04:48;29.87;;;17.93;;
19251;SDS011;9760;50.944;5.304;2023-05-14T10:07:16;32.77;;;18.20;;
19251;SDS011;9760;50.944;5.304;2023-05-14T10:09:47;31.20;;;17.10;;
19251;SDS011;9760;50.944;5.304;2023-05-14T10:12:13;29.60;;;17.27;;
19251;SDS011;9760;50.944;5.304;2023-05-14T10:14:45;29.53;;;18.63;;
19251;SDS011;9760;50.944;5.304;2023-05-14T10:17:18;23.77;;;16.43;;
19251;SDS011;9760;50.944;5.304;2023-05-14T10:19:49;30.47;;;16.87;;
19251;SDS011;9760;50.944;5.304;2023-05-14T10:22:20;29.03;;;16.43;;
19251;SDS011;9760;50.944;5.304;2023-05-14T10:24:48;32.53;;;16.67;;
19251;SDS011;9760;50.944;5.304;2023-05-14T10:27:17;25.13;;;15.50;;
19251;SDS011;9760;50.944;5.304;2023-05-14T10:29:50;26.00;;;16.03;;
19251;SDS011;9760;50.944;5.304;2023-05-14T10:32:21;26.73;;;15.33;;
19251;SDS011;9760;50.944;5.304;2023-05-14T10:34:49;24.13;;;15.17;;
19251;SDS011;9760;50.944;5.304;2023-05-14T10:37:17;26.57;;;16.33;;
19251;SDS011;9760;50.944;5.304;2023-05-14T10:44:54;26.73;;;15.33;;
19251;SDS011;9760;50.944;5.304;2023-05-14T10:47:25;20.63;;;13.60;;
19251;SDS011;9760;50.944;5.304;2023-05-14T10:49:56;19.57;;;13.60;;
19251;SDS011;9760;50.944;5.304;2023-05-14T10:52:23;22.57;;;13.33;;
19251;SDS011;9760;50.944;5.304;2023-05-14T10:57:23;17.83;;;12.30;;
19251;SDS011;9760;50.944;5.304;2023-05-14T10:59:51;23.07;;;14.13;;
19251;SDS011;9760;50.944;5.304;2023-05-14T11:02:19;21.57;;;14.20;;
19251;SDS011;9760;50.944;5.304;2023-05-14T11:05:33;27.10;;;13.27;;
19251;SDS011;9760;50.944;5.304;2023-05-14T11:07:45;19.07;;;12.17;;
19251;SDS011;9760;50.944;5.304;2023-05-14T11:10:12;17.83;;;11.80;;
19251;SDS011;9760;50.944;5.304;2023-05-14T11:12:40;19.07;;;11.60;;
19251;SDS011;9760;50.944;5.304;2023-05-14T11:15:10;19.87;;;11.90;;
19251;SDS011;9760;50.944;5.304;2023-05-14T11:17:38;17.60;;;11.63;;
19251;SDS011;9760;50.944;5.304;2023-05-14T11:20:06;19.63;;;12.67;;
19251;SDS011;9760;50.944;5.304;2023-05-14T11:22:36;16.93;;;11.47;;
19251;SDS011;9760;50.944;5.304;2023-05-14T11:25:03;18.97;;;12.47;;
19251;SDS011;9760;50.944;5.304;2023-05-14T11:27:29;14.87;;;10.80;;
19251;SDS011;9760;50.944;5.304;2023-05-14T11:29:56;20.30;;;12.17;;
19251;SDS011;9760;50.944;5.304;2023-05-14T11:32:22;16.30;;;10.70;;
19251;SDS011;9760;50.944;5.304;2023-05-14T11:34:47;20.93;;;10.63;;
19251;SDS011;9760;50.944;5.304;2023-05-14T11:37:14;16.30;;;9.97;;
19251;SDS011;9760;50.944;5.304;2023-05-14T11:40:14;17.70;;;9.67;;
19251;SDS011;9760;50.944;5.304;2023-05-14T11:42:35;21.50;;;10.70;;
19251;SDS011;9760;50.944;5.304;2023-05-14T11:45:01;17.13;;;9.47;;
19251;SDS011;9760;50.944;5.304;2023-05-14T11:47:27;16.07;;;8.73;;
19251;SDS011;9760;50.944;5.304;2023-05-14T11:49:54;16.93;;;10.13;;
19251;SDS011;9760;50.944;5.304;2023-05-14T11:52:19;15.40;;;9.67;;
19251;SDS011;9760;50.944;5.304;2023-05-14T11:54:46;15.97;;;10.13;;
19251;SDS011;9760;50.944;5.304;2023-05-14T11:57:15;14.50;;;9.33;;
19251;SDS011;9760;50.944;5.304;2023-05-14T11:59:46;16.03;;;8.47;;
19251;SDS011;9760;50.944;5.304;2023-05-14T12:02:14;16.30;;;9.70;;
19251;SDS011;9760;50.944;5.304;2023-05-14T12:04:42;15.97;;;10.43;;
19251;SDS011;9760;50.944;5.304;2023-05-14T12:07:12;13.63;;;9.90;;
19251;SDS011;9760;50.944;5.304;2023-05-14T12:09:40;17.60;;;9.90;;
19251;SDS011;9760;50.944;5.304;2023-05-14T12:12:13;16.97;;;8.73;;
19251;SDS011;9760;50.944;5.304;2023-05-14T12:14:43;14.07;;;9.43;;
19251;SDS011;9760;50.944;5.304;2023-05-14T12:19:41;15.03;;;8.33;;
19251;SDS011;9760;50.944;5.304;2023-05-14T12:22:13;15.43;;;8.93;;
19251;SDS011;9760;50.944;5.304;2023-05-14T12:24:40;14.70;;;8.97;;
19251;SDS011;9760;50.944;5.304;2023-05-14T12:27:08;13.70;;;7.80;;
19251;SDS011;9760;50.944;5.304;2023-05-14T12:29:37;18.43;;;8.23;;
19251;SDS011;9760;50.944;5.304;2023-05-14T12:32:06;13.93;;;9.30;;
19251;SDS011;9760;50.944;5.304;2023-05-14T12:34:34;15.97;;;10.77;;
19251;SDS011;9760;50.944;5.304;2023-05-14T12:37:00;23.73;;;10.67;;
19251;SDS011;9760;50.944;5.304;2023-05-14T12:39:26;19.60;;;11.00;;
19251;SDS011;9760;50.944;5.304;2023-05-14T12:41:52;16.63;;;9.87;;
19251;SDS011;9760;50.944;5.304;2023-05-14T12:44:17;18.33;;;9.63;;
19251;SDS011;9760;50.944;5.304;2023-05-14T12:46:43;12.67;;;8.30;;
19251;SDS011;9760;50.944;5.304;2023-05-14T12:49:09;19.87;;;9.83;;
19251;SDS011;9760;50.944;5.304;2023-05-14T12:51:35;16.63;;;8.37;;
19251;SDS011;9760;50.944;5.304;2023-05-14T12:54:01;16.70;;;8.30;;
19251;SDS011;9760;50.944;5.304;2023-05-14T12:56:27;12.23;;;7.37;;
19251;SDS011;9760;50.944;5.304;2023-05-14T12:58:54;12.30;;;7.30;;
19251;SDS011;9760;50.944;5.304;2023-05-14T13:01:20;13.60;;;7.23;;
19251;SDS011;9760;50.944;5.304;2023-05-14T13:03:46;14.97;;;8.80;;
19251;SDS011;9760;50.944;5.304;2023-05-14T13:06:12;19.03;;;9.37;;
19251;SDS011;9760;50.944;5.304;2023-05-14T13:08:38;16.07;;;8.60;;
19251;SDS011;9760;50.944;5.304;2023-05-14T13:11:03;16.27;;;10.30;;
19251;SDS011;9760;50.944;5.304;2023-05-14T13:13:29;19.70;;;10.37;;
19251;SDS011;9760;50.944;5.304;2023-05-14T13:15:55;16.70;;;9.17;;
19251;SDS011;9760;50.944;5.304;2023-05-14T13:18:21;12.00;;;7.20;;
19251;SDS011;9760;50.944;5.304;2023-05-14T13:20:46;14.37;;;8.27;;
19251;SDS011;9760;50.944;5.304;2023-05-14T13:23:12;11.67;;;8.13;;
19251;SDS011;9760;50.944;5.304;2023-05-14T13:25:38;11.10;;;7.40;;
19251;SDS011;9760;50.944;5.304;2023-05-14T13:28:04;15.47;;;8.10;;
19251;SDS011;9760;50.944;5.304;2023-05-14T13:30:30;12.97;;;7.47;;
19251;SDS011;9760;50.944;5.304;2023-05-14T13:32:56;14.73;;;7.93;;
19251;SDS011;9760;50.944;5.304;2023-05-14T13:35:23;18.93;;;7.97;;
19251;SDS011;9760;50.944;5.304;2023-05-14T13:37:48;15.83;;;7.77;;
19251;SDS011;9760;50.944;5.304;2023-05-14T13:40:14;13.47;;;8.40;;
19251;SDS011;9760;50.944;5.304;2023-05-14T13:42:40;16.87;;;7.67;;
19251;SDS011;9760;50.944;5.304;2023-05-14T13:45:06;23.13;;;8.20;;
19251;SDS011;9760;50.944;5.304;2023-05-14T13:47:32;11.97;;;7.83;;
19251;SDS011;9760;50.944;5.304;2023-05-14T13:49:58;13.03;;;6.73;;
19251;SDS011;9760;50.944;5.304;2023-05-14T13:52:24;10.77;;;6.20;;
19251;SDS011;9760;50.944;5.304;2023-05-14T13:54:50;14.03;;;7.10;;
19251;SDS011;9760;50.944;5.304;2023-05-14T13:57:18;15.60;;;6.37;;
19251;SDS011;9760;50.944;5.304;2023-05-14T13:59:45;11.77;;;6.40;;
19251;SDS011;9760;50.944;5.304;2023-05-14T14:02:11;15.10;;;6.20;;
19251;SDS011;9760;50.944;5.304;2023-05-14T14:04:37;11.20;;;5.33;;
19251;SDS011;9760;50.944;5.304;2023-05-14T14:07:02;8.20;;;4.60;;
19251;SDS011;9760;50.944;5.304;2023-05-14T14:09:28;12.53;;;5.00;;
19251;SDS011;9760;50.944;5.304;2023-05-14T14:11:59;10.30;;;5.67;;
19251;SDS011;9760;50.944;5.304;2023-05-14T14:14:25;11.60;;;5.83;;
19251;SDS011;9760;50.944;5.304;2023-05-14T14:16:51;7.30;;;5.50;;
19251;SDS011;9760;50.944;5.304;2023-05-14T14:19:17;12.20;;;6.70;;
19251;SDS011;9760;50.944;5.304;2023-05-14T14:21:43;11.87;;;6.40;;
19251;SDS011;9760;50.944;5.304;2023-05-14T14:24:09;7.90;;;5.67;;
19251;SDS011;9760;50.944;5.304;2023-05-14T14:26:35;10.80;;;6.23;;
19251;SDS011;9760;50.944;5.304;2023-05-14T14:29:00;15.13;;;5.90;;
19251;SDS011;9760;50.944;5.304;2023-05-14T14:31:26;13.17;;;6.07;;
19251;SDS011;9760;50.944;5.304;2023-05-14T14:33:52;9.27;;;5.70;;
19251;SDS011;9760;50.944;5.304;2023-05-14T14:36:17;11.63;;;5.50;;
19251;SDS011;9760;50.944;5.304;2023-05-14T14:38:43;12.27;;;6.10;;
19251;SDS011;9760;50.944;5.304;2023-05-14T14:41:09;10.80;;;6.67;;
19251;SDS011;9760;50.944;5.304;2023-05-14T14:43:35;11.70;;;6.37;;
19251;SDS011;9760;50.944;5.304;2023-05-14T14:46:01;10.27;;;5.90;;
19251;SDS011;9760;50.944;5.304;2023-05-14T14:48:31;11.37;;;6.80;;
19251;SDS011;9760;50.944;5.304;2023-05-14T14:51:01;9.57;;;6.10;;
19251;SDS011;9760;50.944;5.304;2023-05-14T14:53:27;12.73;;;6.70;;